Latest Coastal Weather Observations for Double Island Point

IDQ60701

Issued at 3:12 pm EST Friday 20 October 2017 (issued every 10 minutes, with the page automatically refreshed every 10 minutes)

About coastal observations | Map of coastal stations | Coastal observations for QLD | Marine services | Other Formats
Station Details ID: 040068 Name: DOUBLE ISLAND POINT LIGHTHOUSE Lat: -25.93 Lon: 153.19 Height: 95.64 m
Data from the previous 72 hours. | See also: Recent months at Double Island Point
Date/Time
EST
Temp
°C
Wind Pressure Rain since
9am
mm
Weather Cloud Vis
km
Sea
Height
m
Swell
Dir  Spd
kts
Gust
kts
hPa Trend Height
m
Period
s
Dir
20/03:00pm 23.8 ESE 10 12 1017.4 - 0.0 - - - - - - -
20/02:30pm 24.6 E 10 12 1017.6 - 0.0 - - - - - - -
20/02:00pm 24.2 ESE 12 15 1018.0 - 0.0 - - - - - - -
20/01:30pm 24.6 E 10 12 1018.6 - 0.0 - - - - - - -
20/01:00pm 24.2 ESE 5 6 1019.1 - 0.0 - - - - - - -
20/12:30pm 23.9 ESE 6 7 1019.7 - 0.0 - - - - - - -
20/12:00pm 24.2 E 5 7 1020.0 - 0.0 - - - - - - -
20/11:30am 24.4 E 7 9 1020.3 - 0.0 - - - - - - -
20/11:00am 24.9 E 7 8 1020.6 - 0.0 - - - - - - -
20/10:30am 26.8 ENE 7 10 1021.1 - 0.0 - - - - - - -
20/10:00am 25.7 ENE 7 10 1021.2 - 0.0 - - - - - - -
20/09:30am 24.6 ENE 9 12 1021.4 - 0.0 - - - - - - -
20/09:00am 24.4 E 9 11 1021.4 - 0.0 - - - - - - -
20/08:30am 23.0 E 10 12 1021.5 - 0.0 - - - - - - -
20/08:00am 22.3 E 13 16 1021.3 - 0.0 - - - - - - -
20/07:30am 22.9 ESE 10 13 1021.3 - 0.0 - - - - - - -
20/07:00am 23.3 E 13 15 1021.1 - 0.0 - - - - - - -
20/06:30am 21.3 E 13 16 1020.9 - 0.0 - - - - - - -
20/06:00am 21.8 E 14 16 1020.7 - 0.0 - - - - - - -
20/05:30am 20.7 E 14 16 1020.4 - 0.0 - - - - - - -
20/05:00am 20.5 ESE 14 16 1020.0 - 0.0 - - - - - - -
20/04:30am 20.5 ESE 14 16 1019.8 - 0.0 - - - - - - -
20/04:00am 20.5 ESE 15 18 1019.6 - 0.0 - - - - - - -
20/03:30am 20.4 ESE 16 18 1019.6 - 0.0 - - - - - - -
20/03:00am 20.5 ESE 16 18 1019.8 - 0.0 - - - - - - -
20/02:30am 20.5 ESE 15 17 1020.0 - 0.0 - - - - - - -
20/02:00am 20.6 E 13 17 1020.4 - 0.0 - - - - - - -
20/01:30am 21.1 E 15 18 1020.6 - 0.0 - - - - - - -
20/01:00am 21.3 E 17 19 1020.9 - 0.0 - - - - - - -
20/12:30am 21.3 E 17 20 1021.4 - 0.0 - - - - - - -
20/12:00am 21.2 E 17 19 1022.0 - 0.0 - - - - - - -
 
Date/Time
EST
Temp
°C
Wind Pressure Rain since
9am
mm
Weather Cloud Vis
km
Sea
Height
m
Swell
Dir  Spd
kts
Gust
kts
hPa Trend Height
m
Period
s
Dir
19/11:30pm 21.2 E 19 22 1022.3 - 0.0 - - - - - - -
19/11:00pm 21.2 E 16 20 1022.7 - 0.0 - - - - - - -
19/10:30pm 21.2 E 19 21 1023.2 - 0.0 - - - - - - -
19/10:00pm 21.3 E 17 20 1023.6 - 0.0 - - - - - - -
19/09:30pm 21.1 E 18 21 1023.6 - 0.0 - - - - - - -
19/09:00pm 21.1 E 18 22 1023.5 - 0.0 - - - - - - -
19/08:30pm 21.2 ESE 19 22 1023.4 - 0.0 - - - - - - -
19/08:00pm 21.2 ESE 18 20 1023.3 - 0.0 - - - - - - -
19/07:30pm 21.3 E 17 21 1023.3 - 0.0 - - - - - - -
19/07:00pm 21.4 E 17 19 1023.2 - 0.0 - - - - - - -
19/06:30pm 21.4 ESE 20 22 1022.7 - 0.0 - - - - - - -
19/06:00pm 21.3 ESE 18 21 1022.5 - 0.0 - - - - - - -
19/05:30pm 21.5 ESE 18 20 1022.2 - 0.0 - - - - - - -
19/05:00pm 21.6 ESE 17 21 1022.0 - 0.0 - - - - - - -
19/04:30pm 21.8 ESE 17 20 1021.9 - 0.0 - - - - - - -
19/04:00pm 22.4 ESE 17 20 1021.7 - 0.0 - - - - - - -
19/03:30pm 22.5 ESE 17 19 1021.8 - 0.0 - - - - - - -
19/03:00pm 22.3 SE 15 17 1021.8 - 0.0 - - - - - - -
19/02:30pm 22.3 ESE 18 20 1022.0 - 0.0 - - - - - - -
19/02:00pm 23.7 ESE 16 19 1022.2 - 0.0 - - - - - - -
19/01:30pm 23.8 ESE 18 20 1022.6 - 0.0 - - - - - - -
19/01:00pm 24.0 ESE 18 20 1022.9 - 0.0 - - - - - - -
19/12:30pm 24.4 E 17 20 1023.3 - 0.0 - - - - - - -
19/12:00pm 24.5 ESE 16 18 1023.5 - 0.0 - - - - - - -
19/11:30am 24.5 E 18 21 1023.4 - 0.0 - - - - - - -
19/11:00am 24.6 E 19 22 1023.5 - 0.0 - - - - - - -
19/10:30am 23.0 ESE 20 23 1023.5 - 0.0 - - - - - - -
19/10:00am 22.8 ESE 19 23 1023.7 - 0.0 - - - - - - -
19/09:30am 23.3 ESE 20 23 1024.0 - 0.0 - - - - - - -
19/09:00am 22.8 ESE 21 24 1024.0 - 1.2 - - - - - - -
19/08:30am 22.5 ESE 21 24 1024.1 - 1.2 - - - - - - -
19/08:00am 21.2 ESE 21 28 1024.2 - 1.2 - - - - - - -
19/07:30am 20.9 E 22 30 1024.0 - 1.2 - - - - - - -
19/07:00am 20.5 E 23 27 1023.7 - 1.2 - - - - - - -
19/06:30am 20.1 E 16 25 1023.7 - 1.2 - - - - - - -
19/06:29am 20.2 ESE 15 25 1023.6 - 1.2 - - - - - - -
19/06:00am 19.8 ESE 26 30 1023.3 - 1.2 - - - - - - -
19/05:30am 19.9 E 20 24 1023.0 - 1.2 - - - - - - -
19/05:00am 19.6 E 22 25 1022.7 - 1.2 - - - - - - -
19/04:30am 19.5 E 18 21 1022.6 - 1.0 - - - - - - -
19/04:00am 19.0 E 29 35 1022.2 - 1.0 - - - - - - -
19/03:45am 20.6 ESE 21 31 1022.1 - 1.0 - - - - - - -
19/03:30am 20.3 SE 19 22 1022.3 - 1.0 - - - - - - -
19/03:00am 20.2 ESE 22 29 1022.4 - 1.0 - - - - - - -
19/02:30am 20.0 ESE 28 32 1022.3 - 1.0 - - - - - - -
19/02:00am 21.0 ESE 22 25 1022.3 - 1.0 - - - - - - -
19/01:30am 20.8 ESE 24 28 1022.6 - 1.0 - - - - - - -
19/01:00am 20.7 ESE 26 32 1022.5 - 1.0 - - - - - - -
19/12:30am 20.7 ESE 22 25 1022.9 - 1.0 - - - - - - -
19/12:00am 20.9 ESE 23 26 1023.1 - 1.0 - - - - - - -
 
Date/Time
EST
Temp
°C
Wind Pressure Rain since
9am
mm
Weather Cloud Vis
km
Sea
Height
m
Swell
Dir  Spd
kts
Gust
kts
hPa Trend Height
m
Period
s
Dir
18/11:30pm 20.7 ESE 25 28 1023.3 - 1.0 - - - - - - -
18/11:00pm 20.3 ESE 24 28 1023.6 - 1.0 - - - - - - -
18/10:30pm 20.9 ESE 25 29 1023.5 - 1.0 - - - - - - -
18/10:17pm 20.8 ESE 21 31 1023.6 - 1.0 - - - - - - -
18/10:00pm 20.2 E 20 24 1023.9 - 1.0 - - - - - - -
18/09:30pm 19.9 E 26 31 1023.8 - 1.0 - - - - - - -
18/09:00pm 20.6 ESE 24 29 1023.9 - 1.0 - - - - - - -
18/08:30pm 20.6 ESE 26 30 1023.6 - 1.0 - - - - - - -
18/08:10pm 20.3 ESE 23 33 1023.3 - 1.0 - - - - - - -
18/08:00pm 20.3 ESE 25 32 1023.3 - 1.0 - - - - - - -
18/07:30pm 20.4 ESE 26 29 1022.9 - 1.0 - - - - - - -
18/07:00pm 20.4 ESE 27 33 1022.4 - 1.0 - - - - - - -
18/06:30pm 20.3 ESE 29 32 1021.9 - 1.0 - - - - - - -
18/06:00pm 19.8 E 27 32 1021.6 - 1.0 Recent precip. - - - - - -
18/05:30pm 19.7 ESE 22 27 1021.4 - 1.0 - - - - - - -
18/05:00pm 20.4 ESE 29 36 1021.0 - 0.0 - - - - - - -
18/04:55pm 20.5 ESE 25 36 1020.9 - 0.0 - - - - - - -
18/04:30pm 20.1 SE 24 29 1020.9 - 0.0 - - - - - - -
18/04:00pm 20.9 ESE 26 30 1020.8 - 0.0 - - - - - - -
18/03:30pm 21.9 ESE 21 28 1020.7 - 0.0 - - - - - - -
18/03:00pm 22.2 SE 25 29 1020.5 - 0.0 - - - - - - -
18/02:30pm 22.6 SE 26 32 1020.6 - 0.0 - - - - - - -
18/02:00pm 22.8 ESE 25 29 1020.9 - 0.0 - - - - - - -
18/01:30pm 23.0 ESE 26 30 1021.0 - 0.0 - - - - - - -
18/01:00pm 22.8 ESE 26 30 1021.2 - 0.0 - - - - - - -
18/12:30pm 23.0 ESE 25 31 1021.5 - 0.0 - - - - - - -
18/12:00pm 22.1 ESE 25 30 1021.4 - 0.0 - - - - - - -
18/11:30am 22.8 ESE 26 32 1021.7 - 0.0 - - - - - - -
18/11:00am 22.7 ESE 25 30 1021.9 - 0.0 - - - - - - -
18/10:30am 22.8 ESE 27 33 1022.0 - 0.0 - - - - - - -
18/10:00am 22.2 ESE 27 33 1022.0 - 0.0 - - - - - - -
18/09:30am 22.6 ESE 24 29 1022.3 - 0.0 - - - - - - -
18/09:00am 22.5 ESE 27 31 1021.9 - 2.6 - - - - - - -
18/08:30am 21.9 ESE 28 34 1021.5 - 2.6 - - - - - - -
18/08:00am 21.8 ESE 34 39 1021.1 - 2.6 - - - - - - -
18/07:30am 21.7 ESE 31 36 1020.9 - 2.6 - - - - - - -
18/07:00am 21.5 ESE 29 34 1020.5 - 2.6 - - - - - - -
18/06:30am 21.4 ESE 31 36 1020.0 - 2.6 - - - - - - -
18/06:00am 21.2 ESE 30 35 1019.7 - 2.6 - - - - - - -
18/05:30am 21.3 ESE 31 36 1019.1 - 2.6 - - - - - - -
18/05:00am 20.7 ESE 29 34 1018.8 - 2.6 - - - - - - -
18/04:30am 21.0 ESE 27 32 1018.4 - 2.6 - - - - - - -
18/04:00am 20.5 ESE 30 38 1018.0 - 2.6 - - - - - - -
18/03:30am 20.5 ESE 30 34 1017.9 - 2.6 - - - - - - -
18/03:00am 21.3 ESE 29 35 1018.0 - 2.6 - - - - - - -
18/02:30am 21.1 ESE 25 31 1017.9 - 2.6 - - - - - - -
18/02:00am 20.9 ESE 28 35 1018.1 - 2.6 - - - - - - -
18/01:30am 21.0 ESE 29 35 1018.2 - 2.6 - - - - - - -
18/01:00am 20.6 ESE 25 29 1018.8 - 2.6 - - - - - - -
18/12:30am 20.5 ESE 26 31 1018.9 - 2.6 - - - - - - -
18/12:00am 21.1 ESE 28 33 1019.2 - 1.4 Recent precip. - - - - - -
 
Date/Time
EST
Temp
°C
Wind Pressure Rain since
9am
mm
Weather Cloud Vis
km
Sea
Height
m
Swell
Dir  Spd
kts
Gust
kts
hPa Trend Height
m
Period
s
Dir
17/11:30pm 20.8 ESE 30 35 1019.6 - 1.4 - - - - - - -
17/11:00pm 20.9 ESE 28 33 1019.7 - 1.2 - - - - - - -
17/10:30pm 21.0 ESE 30 36 1019.9 - 1.0 - - - - - - -
17/10:06pm 20.8 ESE 28 38 1019.9 - 1.0 - - - - - - -
17/10:00pm 21.1 ESE 28 31 1020.0 - 1.0 - - - - - - -
17/09:30pm 20.7 ESE 31 37 1019.8 - 1.0 - - - - - - -
17/09:00pm 20.8 ESE 30 36 1019.7 - 0.8 - - - - - - -
17/08:47pm 20.6 ESE 29 39 1019.7 - 0.8 - - - - - - -
17/08:30pm 20.9 ESE 31 36 1019.3 - 0.8 - - - - - - -
17/08:00pm 21.2 ESE 32 38 1019.1 - 0.8 - - - - - - -
17/07:30pm 21.1 ESE 30 38 1018.8 - 0.8 - - - - - - -
17/07:00pm 21.0 ESE 30 36 1018.9 - 0.6 - - - - - - -
17/06:30pm 21.4 ESE 30 34 1018.4 - 0.6 - - - - - - -
17/06:00pm 21.7 ESE 31 36 1018.0 - 0.6 - - - - - - -
17/05:30pm 21.6 ESE 31 37 1017.7 - 0.6 - - - - - - -
17/05:00pm 21.4 ESE 30 35 1017.2 - 0.6 - - - - - - -
17/04:30pm 21.6 ESE 29 34 1016.9 - 0.6 - - - - - - -
17/04:00pm 21.7 ESE 28 33 1017.0 - 0.6 - - - - - - -
17/03:30pm 21.7 ESE 28 33 1016.5 - 0.6 - - - - - - -

Other Formats:

Comma delimited format used in spreadsheet applications
http://www.bom.gov.au/fwo/IDQ60701/IDQ60701.94584.axf

JavaScript Object Notation format (JSON) in row-major order
http://www.bom.gov.au/fwo/IDQ60701/IDQ60701.94584.json